sensor_id;sensor_type;location;lat;lon;timestamp;P1;durP1;ratioP1;P2;durP2;ratioP2
71435;SDS011;59251;51.326;12.370;2023-06-14T00:01:46;5.15;;;1.70;;
71435;SDS011;59251;51.326;12.370;2023-06-14T00:04:13;6.23;;;1.50;;
71435;SDS011;59251;51.326;12.370;2023-06-14T00:06:41;5.22;;;1.63;;
71435;SDS011;59251;51.326;12.370;2023-06-14T00:09:10;5.90;;;1.60;;
71435;SDS011;59251;51.326;12.370;2023-06-14T00:11:39;5.30;;;1.35;;
71435;SDS011;59251;51.326;12.370;2023-06-14T00:14:06;7.25;;;1.60;;
71435;SDS011;59251;51.326;12.370;2023-06-14T00:16:33;5.90;;;1.70;;
71435;SDS011;59251;51.326;12.370;2023-06-14T00:19:00;5.07;;;1.50;;
71435;SDS011;59251;51.326;12.370;2023-06-14T00:21:28;5.65;;;1.60;;
71435;SDS011;59251;51.326;12.370;2023-06-14T00:23:55;11.73;;;1.92;;
71435;SDS011;59251;51.326;12.370;2023-06-14T00:26:22;8.10;;;1.85;;
71435;SDS011;59251;51.326;12.370;2023-06-14T00:28:50;5.00;;;1.60;;
71435;SDS011;59251;51.326;12.370;2023-06-14T00:31:17;5.78;;;1.70;;
71435;SDS011;59251;51.326;12.370;2023-06-14T00:33:43;7.35;;;2.03;;
71435;SDS011;59251;51.326;12.370;2023-06-14T00:36:11;6.60;;;1.58;;
71435;SDS011;59251;51.326;12.370;2023-06-14T00:38:38;5.80;;;2.10;;
71435;SDS011;59251;51.326;12.370;2023-06-14T00:41:07;7.37;;;1.83;;
71435;SDS011;59251;51.326;12.370;2023-06-14T00:43:34;7.82;;;1.80;;
71435;SDS011;59251;51.326;12.370;2023-06-14T00:46:02;7.47;;;2.00;;
71435;SDS011;59251;51.326;12.370;2023-06-14T00:48:29;7.88;;;1.80;;
71435;SDS011;59251;51.326;12.370;2023-06-14T00:50:57;6.30;;;1.90;;
71435;SDS011;59251;51.326;12.370;2023-06-14T00:53:26;5.57;;;1.60;;
71435;SDS011;59251;51.326;12.370;2023-06-14T00:55:53;5.93;;;1.75;;
71435;SDS011;59251;51.326;12.370;2023-06-14T00:58:19;6.38;;;1.95;;
71435;SDS011;59251;51.326;12.370;2023-06-14T01:00:48;7.38;;;2.00;;
71435;SDS011;59251;51.326;12.370;2023-06-14T01:03:17;6.60;;;2.05;;
71435;SDS011;59251;51.326;12.370;2023-06-14T01:05:47;6.67;;;1.90;;
71435;SDS011;59251;51.326;12.370;2023-06-14T01:08:15;7.38;;;2.13;;
71435;SDS011;59251;51.326;12.370;2023-06-14T01:10:53;7.65;;;1.80;;
71435;SDS011;59251;51.326;12.370;2023-06-14T01:13:32;7.00;;;1.73;;
71435;SDS011;59251;51.326;12.370;2023-06-14T01:16:01;6.45;;;1.92;;
71435;SDS011;59251;51.326;12.370;2023-06-14T01:18:30;7.43;;;1.97;;
71435;SDS011;59251;51.326;12.370;2023-06-14T01:21:00;6.22;;;2.10;;
71435;SDS011;59251;51.326;12.370;2023-06-14T01:23:32;9.13;;;1.98;;
71435;SDS011;59251;51.326;12.370;2023-06-14T01:25:59;5.63;;;1.88;;
71435;SDS011;59251;51.326;12.370;2023-06-14T01:28:30;10.35;;;2.47;;
71435;SDS011;59251;51.326;12.370;2023-06-14T01:31:00;6.33;;;2.17;;
71435;SDS011;59251;51.326;12.370;2023-06-14T01:33:29;7.25;;;2.22;;
71435;SDS011;59251;51.326;12.370;2023-06-14T01:35:58;6.72;;;2.30;;
71435;SDS011;59251;51.326;12.370;2023-06-14T01:38:29;5.90;;;2.00;;
71435;SDS011;59251;51.326;12.370;2023-06-14T01:40:58;7.72;;;2.03;;
71435;SDS011;59251;51.326;12.370;2023-06-14T01:43:26;5.70;;;2.23;;
71435;SDS011;59251;51.326;12.370;2023-06-14T01:45:56;5.80;;;2.13;;
71435;SDS011;59251;51.326;12.370;2023-06-14T01:48:26;6.20;;;2.25;;
71435;SDS011;59251;51.326;12.370;2023-06-14T01:50:53;7.20;;;2.20;;
71435;SDS011;59251;51.326;12.370;2023-06-14T01:53:19;8.15;;;2.33;;
71435;SDS011;59251;51.326;12.370;2023-06-14T01:55:48;6.57;;;1.97;;
71435;SDS011;59251;51.326;12.370;2023-06-14T01:58:14;7.80;;;2.97;;
71435;SDS011;59251;51.326;12.370;2023-06-14T02:00:42;6.10;;;2.40;;
71435;SDS011;59251;51.326;12.370;2023-06-14T02:03:10;7.47;;;2.40;;
71435;SDS011;59251;51.326;12.370;2023-06-14T02:05:38;7.07;;;2.13;;
71435;SDS011;59251;51.326;12.370;2023-06-14T02:08:05;7.13;;;2.53;;
71435;SDS011;59251;51.326;12.370;2023-06-14T02:10:31;8.23;;;2.60;;
71435;SDS011;59251;51.326;12.370;2023-06-14T02:12:59;7.28;;;2.22;;
71435;SDS011;59251;51.326;12.370;2023-06-14T02:15:26;6.57;;;2.38;;
71435;SDS011;59251;51.326;12.370;2023-06-14T02:17:59;7.50;;;2.15;;
71435;SDS011;59251;51.326;12.370;2023-06-14T02:20:27;8.23;;;2.30;;
71435;SDS011;59251;51.326;12.370;2023-06-14T02:22:55;6.40;;;2.20;;
71435;SDS011;59251;51.326;12.370;2023-06-14T02:25:22;7.22;;;2.28;;
71435;SDS011;59251;51.326;12.370;2023-06-14T02:27:49;7.90;;;2.25;;
71435;SDS011;59251;51.326;12.370;2023-06-14T02:30:17;6.47;;;2.28;;
71435;SDS011;59251;51.326;12.370;2023-06-14T02:32:44;6.80;;;1.93;;
71435;SDS011;59251;51.326;12.370;2023-06-14T02:35:13;8.52;;;2.35;;
71435;SDS011;59251;51.326;12.370;2023-06-14T02:37:40;6.95;;;2.08;;
71435;SDS011;59251;51.326;12.370;2023-06-14T02:40:08;7.10;;;2.03;;
71435;SDS011;59251;51.326;12.370;2023-06-14T02:42:35;7.18;;;2.08;;
71435;SDS011;59251;51.326;12.370;2023-06-14T02:45:03;5.80;;;1.90;;
71435;SDS011;59251;51.326;12.370;2023-06-14T02:47:32;6.32;;;2.30;;
71435;SDS011;59251;51.326;12.370;2023-06-14T02:49:58;7.40;;;2.53;;
71435;SDS011;59251;51.326;12.370;2023-06-14T02:52:25;6.95;;;2.22;;
71435;SDS011;59251;51.326;12.370;2023-06-14T02:54:52;6.32;;;2.10;;
71435;SDS011;59251;51.326;12.370;2023-06-14T02:57:19;6.00;;;2.10;;
71435;SDS011;59251;51.326;12.370;2023-06-14T02:59:46;6.35;;;2.00;;
71435;SDS011;59251;51.326;12.370;2023-06-14T03:02:13;7.10;;;2.30;;
71435;SDS011;59251;51.326;12.370;2023-06-14T03:04:42;6.40;;;2.22;;
71435;SDS011;59251;51.326;12.370;2023-06-14T03:07:13;5.90;;;2.30;;
71435;SDS011;59251;51.326;12.370;2023-06-14T03:09:46;6.83;;;1.70;;
71435;SDS011;59251;51.326;12.370;2023-06-14T03:12:13;7.65;;;2.20;;
71435;SDS011;59251;51.326;12.370;2023-06-14T03:14:40;6.38;;;2.22;;
71435;SDS011;59251;51.326;12.370;2023-06-14T03:17:11;6.78;;;2.50;;
71435;SDS011;59251;51.326;12.370;2023-06-14T03:19:39;8.85;;;2.10;;
71435;SDS011;59251;51.326;12.370;2023-06-14T03:22:08;7.47;;;2.20;;
71435;SDS011;59251;51.326;12.370;2023-06-14T03:24:37;7.00;;;2.10;;
71435;SDS011;59251;51.326;12.370;2023-06-14T03:27:13;7.20;;;2.60;;
71435;SDS011;59251;51.326;12.370;2023-06-14T03:29:43;6.13;;;1.95;;
71435;SDS011;59251;51.326;12.370;2023-06-14T03:32:10;7.72;;;2.08;;
71435;SDS011;59251;51.326;12.370;2023-06-14T03:34:40;8.30;;;2.00;;
71435;SDS011;59251;51.326;12.370;2023-06-14T03:37:13;6.28;;;2.10;;
71435;SDS011;59251;51.326;12.370;2023-06-14T03:39:40;8.07;;;2.35;;
71435;SDS011;59251;51.326;12.370;2023-06-14T03:42:14;7.13;;;2.25;;
71435;SDS011;59251;51.326;12.370;2023-06-14T03:44:42;8.07;;;2.47;;
71435;SDS011;59251;51.326;12.370;2023-06-14T03:47:10;7.57;;;2.20;;
71435;SDS011;59251;51.326;12.370;2023-06-14T03:49:36;8.05;;;2.40;;
71435;SDS011;59251;51.326;12.370;2023-06-14T03:52:03;6.80;;;2.17;;
71435;SDS011;59251;51.326;12.370;2023-06-14T03:54:33;6.38;;;2.10;;
71435;SDS011;59251;51.326;12.370;2023-06-14T03:57:00;8.05;;;2.70;;
71435;SDS011;59251;51.326;12.370;2023-06-14T03:59:27;7.57;;;2.20;;
71435;SDS011;59251;51.326;12.370;2023-06-14T04:01:54;6.18;;;2.15;;
71435;SDS011;59251;51.326;12.370;2023-06-14T04:04:21;7.85;;;2.25;;
71435;SDS011;59251;51.326;12.370;2023-06-14T04:06:55;8.15;;;2.60;;
71435;SDS011;59251;51.326;12.370;2023-06-14T04:09:23;7.93;;;2.70;;
71435;SDS011;59251;51.326;12.370;2023-06-14T04:11:52;6.67;;;2.30;;
71435;SDS011;59251;51.326;12.370;2023-06-14T04:14:19;8.60;;;2.50;;
71435;SDS011;59251;51.326;12.370;2023-06-14T04:16:45;8.82;;;2.45;;
71435;SDS011;59251;51.326;12.370;2023-06-14T04:19:15;6.75;;;2.22;;
71435;SDS011;59251;51.326;12.370;2023-06-14T04:21:42;7.68;;;2.38;;
71435;SDS011;59251;51.326;12.370;2023-06-14T04:24:08;7.83;;;2.30;;
71435;SDS011;59251;51.326;12.370;2023-06-14T04:26:38;7.72;;;2.45;;
71435;SDS011;59251;51.326;12.370;2023-06-14T04:29:07;7.25;;;2.33;;
71435;SDS011;59251;51.326;12.370;2023-06-14T04:31:40;11.30;;;2.30;;
71435;SDS011;59251;51.326;12.370;2023-06-14T04:34:09;8.23;;;2.85;;
71435;SDS011;59251;51.326;12.370;2023-06-14T04:36:43;6.70;;;2.50;;
71435;SDS011;59251;51.326;12.370;2023-06-14T04:39:15;7.90;;;2.90;;
71435;SDS011;59251;51.326;12.370;2023-06-14T04:41:43;6.88;;;2.65;;
71435;SDS011;59251;51.326;12.370;2023-06-14T04:44:11;6.00;;;2.50;;
71435;SDS011;59251;51.326;12.370;2023-06-14T04:46:43;7.63;;;2.85;;
71435;SDS011;59251;51.326;12.370;2023-06-14T04:49:14;8.23;;;2.90;;
71435;SDS011;59251;51.326;12.370;2023-06-14T04:51:42;8.43;;;3.13;;
71435;SDS011;59251;51.326;12.370;2023-06-14T04:54:09;7.13;;;2.80;;
71435;SDS011;59251;51.326;12.370;2023-06-14T04:56:40;8.98;;;3.67;;
71435;SDS011;59251;51.326;12.370;2023-06-14T04:59:08;6.85;;;2.50;;
71435;SDS011;59251;51.326;12.370;2023-06-14T05:01:38;8.43;;;3.00;;
71435;SDS011;59251;51.326;12.370;2023-06-14T05:04:04;7.07;;;2.80;;
71435;SDS011;59251;51.326;12.370;2023-06-14T05:06:31;10.45;;;2.85;;
71435;SDS011;59251;51.326;12.370;2023-06-14T05:08:58;6.88;;;2.78;;
71435;SDS011;59251;51.326;12.370;2023-06-14T05:11:25;9.63;;;2.72;;
71435;SDS011;59251;51.326;12.370;2023-06-14T05:13:51;9.90;;;3.80;;
71435;SDS011;59251;51.326;12.370;2023-06-14T05:16:18;10.55;;;3.40;;
71435;SDS011;59251;51.326;12.370;2023-06-14T05:18:46;8.30;;;3.33;;
71435;SDS011;59251;51.326;12.370;2023-06-14T05:21:13;8.88;;;3.03;;
71435;SDS011;59251;51.326;12.370;2023-06-14T05:23:42;8.77;;;3.35;;
71435;SDS011;59251;51.326;12.370;2023-06-14T05:26:09;9.60;;;3.30;;
71435;SDS011;59251;51.326;12.370;2023-06-14T05:28:36;9.93;;;3.65;;
71435;SDS011;59251;51.326;12.370;2023-06-14T05:31:03;8.40;;;3.33;;
71435;SDS011;59251;51.326;12.370;2023-06-14T05:33:29;10.25;;;3.40;;
71435;SDS011;59251;51.326;12.370;2023-06-14T05:35:57;8.15;;;3.50;;
71435;SDS011;59251;51.326;12.370;2023-06-14T05:38:24;9.93;;;3.30;;
71435;SDS011;59251;51.326;12.370;2023-06-14T05:40:51;7.72;;;3.33;;
71435;SDS011;59251;51.326;12.370;2023-06-14T05:43:19;7.70;;;3.20;;
71435;SDS011;59251;51.326;12.370;2023-06-14T05:45:45;10.23;;;3.63;;
71435;SDS011;59251;51.326;12.370;2023-06-14T05:48:12;7.00;;;2.72;;
71435;SDS011;59251;51.326;12.370;2023-06-14T05:50:39;9.43;;;3.43;;
71435;SDS011;59251;51.326;12.370;2023-06-14T05:53:07;8.43;;;3.85;;
71435;SDS011;59251;51.326;12.370;2023-06-14T05:55:33;9.43;;;3.70;;
71435;SDS011;59251;51.326;12.370;2023-06-14T05:58:00;7.97;;;3.22;;
71435;SDS011;59251;51.326;12.370;2023-06-14T06:00:27;9.93;;;3.55;;
71435;SDS011;59251;51.326;12.370;2023-06-14T06:02:53;10.87;;;3.83;;
71435;SDS011;59251;51.326;12.370;2023-06-14T06:05:22;11.00;;;4.30;;
71435;SDS011;59251;51.326;12.370;2023-06-14T06:07:49;11.90;;;3.88;;
71435;SDS011;59251;51.326;12.370;2023-06-14T06:10:17;8.82;;;3.70;;
71435;SDS011;59251;51.326;12.370;2023-06-14T06:12:44;8.35;;;3.63;;
71435;SDS011;59251;51.326;12.370;2023-06-14T06:15:12;8.13;;;3.80;;
71435;SDS011;59251;51.326;12.370;2023-06-14T06:17:39;8.80;;;4.32;;
71435;SDS011;59251;51.326;12.370;2023-06-14T06:20:06;11.50;;;3.75;;
71435;SDS011;59251;51.326;12.370;2023-06-14T06:22:35;9.57;;;3.72;;
71435;SDS011;59251;51.326;12.370;2023-06-14T06:25:01;8.80;;;4.07;;
71435;SDS011;59251;51.326;12.370;2023-06-14T06:27:29;11.83;;;4.37;;
71435;SDS011;59251;51.326;12.370;2023-06-14T06:29:56;9.55;;;4.07;;
71435;SDS011;59251;51.326;12.370;2023-06-14T06:32:23;9.57;;;4.18;;
71435;SDS011;59251;51.326;12.370;2023-06-14T06:34:49;8.95;;;4.22;;
71435;SDS011;59251;51.326;12.370;2023-06-14T06:37:17;9.68;;;3.90;;
71435;SDS011;59251;51.326;12.370;2023-06-14T06:39:43;8.30;;;3.80;;
71435;SDS011;59251;51.326;12.370;2023-06-14T06:42:11;8.52;;;3.67;;
71435;SDS011;59251;51.326;12.370;2023-06-14T06:44:42;8.20;;;3.78;;
71435;SDS011;59251;51.326;12.370;2023-06-14T06:47:09;8.77;;;4.65;;
71435;SDS011;59251;51.326;12.370;2023-06-14T06:49:36;9.00;;;4.25;;
71435;SDS011;59251;51.326;12.370;2023-06-14T06:52:04;9.70;;;3.80;;
71435;SDS011;59251;51.326;12.370;2023-06-14T06:54:32;8.93;;;3.70;;
71435;SDS011;59251;51.326;12.370;2023-06-14T06:56:59;8.20;;;4.05;;
71435;SDS011;59251;51.326;12.370;2023-06-14T06:59:26;8.70;;;4.22;;
71435;SDS011;59251;51.326;12.370;2023-06-14T07:01:54;9.90;;;3.60;;
71435;SDS011;59251;51.326;12.370;2023-06-14T07:04:21;11.00;;;3.63;;
71435;SDS011;59251;51.326;12.370;2023-06-14T07:06:48;9.27;;;3.50;;
71435;SDS011;59251;51.326;12.370;2023-06-14T07:09:14;10.27;;;3.83;;
71435;SDS011;59251;51.326;12.370;2023-06-14T07:11:43;9.75;;;3.33;;
71435;SDS011;59251;51.326;12.370;2023-06-14T07:14:10;11.40;;;4.57;;
71435;SDS011;59251;51.326;12.370;2023-06-14T07:16:38;8.87;;;3.40;;
71435;SDS011;59251;51.326;12.370;2023-06-14T07:19:07;8.10;;;3.40;;
71435;SDS011;59251;51.326;12.370;2023-06-14T07:21:34;9.23;;;3.67;;
71435;SDS011;59251;51.326;12.370;2023-06-14T07:24:03;9.18;;;3.28;;
71435;SDS011;59251;51.326;12.370;2023-06-14T07:26:31;8.75;;;3.05;;
71435;SDS011;59251;51.326;12.370;2023-06-14T07:28:58;6.83;;;3.13;;
71435;SDS011;59251;51.326;12.370;2023-06-14T07:31:25;9.20;;;3.58;;
71435;SDS011;59251;51.326;12.370;2023-06-14T07:33:52;8.40;;;3.90;;
71435;SDS011;59251;51.326;12.370;2023-06-14T07:36:20;9.55;;;3.08;;
71435;SDS011;59251;51.326;12.370;2023-06-14T07:38:47;10.50;;;3.05;;
71435;SDS011;59251;51.326;12.370;2023-06-14T07:41:14;7.83;;;3.07;;
71435;SDS011;59251;51.326;12.370;2023-06-14T07:43:42;8.80;;;3.35;;
71435;SDS011;59251;51.326;12.370;2023-06-14T07:46:08;9.30;;;3.45;;
71435;SDS011;59251;51.326;12.370;2023-06-14T07:48:35;7.15;;;2.90;;
71435;SDS011;59251;51.326;12.370;2023-06-14T07:51:02;6.95;;;2.90;;
71435;SDS011;59251;51.326;12.370;2023-06-14T07:53:31;6.43;;;2.50;;
71435;SDS011;59251;51.326;12.370;2023-06-14T07:55:57;7.82;;;2.97;;
71435;SDS011;59251;51.326;12.370;2023-06-14T07:58:25;8.65;;;3.22;;
71435;SDS011;59251;51.326;12.370;2023-06-14T08:00:51;7.53;;;3.55;;
71435;SDS011;59251;51.326;12.370;2023-06-14T08:03:19;9.07;;;3.30;;
71435;SDS011;59251;51.326;12.370;2023-06-14T08:05:47;6.57;;;2.90;;
71435;SDS011;59251;51.326;12.370;2023-06-14T08:08:14;9.98;;;3.00;;
71435;SDS011;59251;51.326;12.370;2023-06-14T08:10:42;9.00;;;3.10;;
71435;SDS011;59251;51.326;12.370;2023-06-14T08:13:09;7.28;;;3.05;;
71435;SDS011;59251;51.326;12.370;2023-06-14T08:15:36;7.22;;;2.92;;
71435;SDS011;59251;51.326;12.370;2023-06-14T08:18:02;7.03;;;2.70;;
71435;SDS011;59251;51.326;12.370;2023-06-14T08:20:29;7.13;;;3.10;;
71435;SDS011;59251;51.326;12.370;2023-06-14T08:22:57;7.03;;;2.83;;
71435;SDS011;59251;51.326;12.370;2023-06-14T08:25:23;11.48;;;3.25;;
71435;SDS011;59251;51.326;12.370;2023-06-14T08:27:52;8.77;;;3.35;;
71435;SDS011;59251;51.326;12.370;2023-06-14T08:30:19;8.00;;;2.80;;
71435;SDS011;59251;51.326;12.370;2023-06-14T08:32:46;7.13;;;3.28;;
71435;SDS011;59251;51.326;12.370;2023-06-14T08:35:12;7.38;;;3.00;;
71435;SDS011;59251;51.326;12.370;2023-06-14T08:37:39;9.20;;;3.30;;
71435;SDS011;59251;51.326;12.370;2023-06-14T08:40:11;9.05;;;3.25;;
71435;SDS011;59251;51.326;12.370;2023-06-14T08:42:44;8.40;;;3.07;;
71435;SDS011;59251;51.326;12.370;2023-06-14T08:45:13;8.38;;;3.30;;
71435;SDS011;59251;51.326;12.370;2023-06-14T08:47:40;8.35;;;3.10;;
71435;SDS011;59251;51.326;12.370;2023-06-14T08:50:07;7.18;;;3.15;;
71435;SDS011;59251;51.326;12.370;2023-06-14T08:52:36;6.97;;;2.80;;
71435;SDS011;59251;51.326;12.370;2023-06-14T08:55:05;10.10;;;3.13;;
71435;SDS011;59251;51.326;12.370;2023-06-14T08:57:34;7.40;;;3.63;;
71435;SDS011;59251;51.326;12.370;2023-06-14T09:00:03;7.63;;;3.38;;
71435;SDS011;59251;51.326;12.370;2023-06-14T09:02:38;9.50;;;3.20;;
71435;SDS011;59251;51.326;12.370;2023-06-14T09:05:09;7.60;;;3.30;;
71435;SDS011;59251;51.326;12.370;2023-06-14T09:07:36;8.87;;;2.60;;
71435;SDS011;59251;51.326;12.370;2023-06-14T09:10:07;7.28;;;3.08;;
71435;SDS011;59251;51.326;12.370;2023-06-14T09:12:34;8.88;;;2.70;;
71435;SDS011;59251;51.326;12.370;2023-06-14T09:15:01;8.15;;;2.70;;
71435;SDS011;59251;51.326;12.370;2023-06-14T09:17:32;8.02;;;2.70;;
71435;SDS011;59251;51.326;12.370;2023-06-14T09:20:00;5.63;;;2.50;;
71435;SDS011;59251;51.326;12.370;2023-06-14T09:22:30;7.82;;;2.50;;
71435;SDS011;59251;51.326;12.370;2023-06-14T09:24:57;6.55;;;2.67;;
71435;SDS011;59251;51.326;12.370;2023-06-14T09:29:51;6.45;;;2.60;;
71435;SDS011;59251;51.326;12.370;2023-06-14T09:32:18;7.63;;;2.80;;
71435;SDS011;59251;51.326;12.370;2023-06-14T09:34:45;6.13;;;2.60;;
71435;SDS011;59251;51.326;12.370;2023-06-14T09:37:13;8.07;;;2.30;;
71435;SDS011;59251;51.326;12.370;2023-06-14T09:39:52;8.13;;;2.65;;
71435;SDS011;59251;51.326;12.370;2023-06-14T09:42:19;11.35;;;2.85;;
71435;SDS011;59251;51.326;12.370;2023-06-14T09:44:46;7.03;;;2.67;;
71435;SDS011;59251;51.326;12.370;2023-06-14T09:47:14;6.32;;;2.50;;
71435;SDS011;59251;51.326;12.370;2023-06-14T09:49:41;6.55;;;2.08;;
71435;SDS011;59251;51.326;12.370;2023-06-14T09:52:08;5.30;;;2.10;;
71435;SDS011;59251;51.326;12.370;2023-06-14T09:54:40;6.00;;;2.30;;
71435;SDS011;59251;51.326;12.370;2023-06-14T09:57:09;6.53;;;2.33;;
71435;SDS011;59251;51.326;12.370;2023-06-14T09:59:39;6.88;;;2.20;;
71435;SDS011;59251;51.326;12.370;2023-06-14T10:02:09;5.75;;;2.03;;
71435;SDS011;59251;51.326;12.370;2023-06-14T10:04:39;7.68;;;2.17;;
71435;SDS011;59251;51.326;12.370;2023-06-14T10:07:12;6.53;;;2.15;;
71435;SDS011;59251;51.326;12.370;2023-06-14T10:09:44;7.00;;;2.33;;
71435;SDS011;59251;51.326;12.370;2023-06-14T10:12:14;6.82;;;2.15;;
71435;SDS011;59251;51.326;12.370;2023-06-14T10:14:46;6.57;;;2.00;;
71435;SDS011;59251;51.326;12.370;2023-06-14T10:17:17;6.25;;;2.30;;
71435;SDS011;59251;51.326;12.370;2023-06-14T10:19:50;5.85;;;2.10;;
71435;SDS011;59251;51.326;12.370;2023-06-14T10:22:23;9.80;;;2.57;;
71435;SDS011;59251;51.326;12.370;2023-06-14T10:24:58;7.35;;;2.65;;
71435;SDS011;59251;51.326;12.370;2023-06-14T10:27:25;7.07;;;2.20;;
71435;SDS011;59251;51.326;12.370;2023-06-14T10:30:02;5.85;;;2.10;;
71435;SDS011;59251;51.326;12.370;2023-06-14T10:32:31;6.32;;;2.20;;
71435;SDS011;59251;51.326;12.370;2023-06-14T10:34:59;6.63;;;2.50;;
71435;SDS011;59251;51.326;12.370;2023-06-14T10:37:27;6.60;;;2.50;;
71435;SDS011;59251;51.326;12.370;2023-06-14T10:39:54;7.55;;;2.60;;
71435;SDS011;59251;51.326;12.370;2023-06-14T10:42:23;6.50;;;2.25;;
71435;SDS011;59251;51.326;12.370;2023-06-14T10:44:54;7.25;;;2.60;;
71435;SDS011;59251;51.326;12.370;2023-06-14T10:47:23;6.27;;;2.00;;
71435;SDS011;59251;51.326;12.370;2023-06-14T10:49:52;7.80;;;2.20;;
71435;SDS011;59251;51.326;12.370;2023-06-14T10:52:23;9.38;;;2.00;;
71435;SDS011;59251;51.326;12.370;2023-06-14T10:54:58;7.43;;;2.10;;
71435;SDS011;59251;51.326;12.370;2023-06-14T10:57:32;6.45;;;1.73;;
71435;SDS011;59251;51.326;12.370;2023-06-14T11:00:00;6.73;;;1.93;;
71435;SDS011;59251;51.326;12.370;2023-06-14T11:05:42;6.60;;;2.17;;
71435;SDS011;59251;51.326;12.370;2023-06-14T11:08:18;5.47;;;1.88;;
71435;SDS011;59251;51.326;12.370;2023-06-14T11:11:05;6.20;;;2.03;;
71435;SDS011;59251;51.326;12.370;2023-06-14T11:13:34;6.40;;;2.03;;
71435;SDS011;59251;51.326;12.370;2023-06-14T11:16:10;6.85;;;2.03;;
71435;SDS011;59251;51.326;12.370;2023-06-14T11:18:37;6.88;;;2.25;;
71435;SDS011;59251;51.326;12.370;2023-06-14T11:21:04;5.35;;;1.90;;
71435;SDS011;59251;51.326;12.370;2023-06-14T11:23:30;5.45;;;1.85;;
71435;SDS011;59251;51.326;12.370;2023-06-14T11:25:57;5.17;;;1.70;;
71435;SDS011;59251;51.326;12.370;2023-06-14T11:28:24;6.03;;;1.90;;
71435;SDS011;59251;51.326;12.370;2023-06-14T11:31:00;7.35;;;2.40;;
71435;SDS011;59251;51.326;12.370;2023-06-14T11:33:27;6.70;;;2.63;;
71435;SDS011;59251;51.326;12.370;2023-06-14T11:35:54;6.93;;;2.50;;
71435;SDS011;59251;51.326;12.370;2023-06-14T11:38:21;5.60;;;2.13;;
71435;SDS011;59251;51.326;12.370;2023-06-14T11:40:48;5.97;;;2.40;;
71435;SDS011;59251;51.326;12.370;2023-06-14T11:43:14;5.22;;;2.10;;
71435;SDS011;59251;51.326;12.370;2023-06-14T11:45:42;5.78;;;2.08;;
71435;SDS011;59251;51.326;12.370;2023-06-14T11:48:10;8.43;;;2.40;;
71435;SDS011;59251;51.326;12.370;2023-06-14T11:50:37;7.13;;;2.03;;
71435;SDS011;59251;51.326;12.370;2023-06-14T11:53:04;6.70;;;2.20;;
71435;SDS011;59251;51.326;12.370;2023-06-14T11:55:35;6.15;;;2.20;;
71435;SDS011;59251;51.326;12.370;2023-06-14T11:58:03;5.65;;;2.10;;
71435;SDS011;59251;51.326;12.370;2023-06-14T12:00:30;5.35;;;2.40;;
71435;SDS011;59251;51.326;12.370;2023-06-14T12:02:56;5.70;;;1.80;;
71435;SDS011;59251;51.326;12.370;2023-06-14T12:05:25;5.30;;;2.00;;
71435;SDS011;59251;51.326;12.370;2023-06-14T12:07:57;5.50;;;2.20;;
71435;SDS011;59251;51.326;12.370;2023-06-14T12:10:25;5.95;;;2.22;;
71435;SDS011;59251;51.326;12.370;2023-06-14T12:12:56;6.85;;;2.30;;
71435;SDS011;59251;51.326;12.370;2023-06-14T12:15:23;7.03;;;2.50;;
71435;SDS011;59251;51.326;12.370;2023-06-14T12:17:50;5.40;;;2.30;;
71435;SDS011;59251;51.326;12.370;2023-06-14T12:20:17;5.47;;;2.28;;
71435;SDS011;59251;51.326;12.370;2023-06-14T12:22:50;5.10;;;2.08;;
71435;SDS011;59251;51.326;12.370;2023-06-14T12:25:24;5.10;;;2.15;;
71435;SDS011;59251;51.326;12.370;2023-06-14T12:27:53;6.13;;;2.93;;
71435;SDS011;59251;51.326;12.370;2023-06-14T12:30:20;7.93;;;3.92;;
71435;SDS011;59251;51.326;12.370;2023-06-14T12:32:46;6.28;;;2.50;;
71435;SDS011;59251;51.326;12.370;2023-06-14T12:35:13;6.00;;;2.20;;
71435;SDS011;59251;51.326;12.370;2023-06-14T12:37:41;5.60;;;2.40;;
71435;SDS011;59251;51.326;12.370;2023-06-14T12:40:10;6.83;;;2.47;;
71435;SDS011;59251;51.326;12.370;2023-06-14T12:42:37;5.70;;;2.40;;
71435;SDS011;59251;51.326;12.370;2023-06-14T12:45:04;5.75;;;2.55;;
71435;SDS011;59251;51.326;12.370;2023-06-14T12:47:31;6.78;;;2.40;;
71435;SDS011;59251;51.326;12.370;2023-06-14T12:49:58;9.40;;;4.78;;
71435;SDS011;59251;51.326;12.370;2023-06-14T12:52:25;6.27;;;2.40;;
71435;SDS011;59251;51.326;12.370;2023-06-14T12:54:51;6.85;;;2.60;;
71435;SDS011;59251;51.326;12.370;2023-06-14T12:57:19;6.32;;;2.58;;
71435;SDS011;59251;51.326;12.370;2023-06-14T12:59:46;7.80;;;2.70;;
71435;SDS011;59251;51.326;12.370;2023-06-14T13:02:13;9.95;;;2.90;;
71435;SDS011;59251;51.326;12.370;2023-06-14T13:04:40;6.80;;;2.70;;
71435;SDS011;59251;51.326;12.370;2023-06-14T13:07:07;6.68;;;2.50;;
71435;SDS011;59251;51.326;12.370;2023-06-14T13:09:33;6.60;;;2.63;;
71435;SDS011;59251;51.326;12.370;2023-06-14T13:12:00;6.53;;;2.25;;
71435;SDS011;59251;51.326;12.370;2023-06-14T13:14:28;6.80;;;2.40;;
71435;SDS011;59251;51.326;12.370;2023-06-14T13:16:56;6.70;;;2.83;;
71435;SDS011;59251;51.326;12.370;2023-06-14T13:19:23;6.90;;;2.45;;
71435;SDS011;59251;51.326;12.370;2023-06-14T13:21:50;8.88;;;2.70;;
71435;SDS011;59251;51.326;12.370;2023-06-14T13:24:16;6.88;;;2.33;;
71435;SDS011;59251;51.326;12.370;2023-06-14T13:26:43;12.55;;;2.45;;
71435;SDS011;59251;51.326;12.370;2023-06-14T13:29:10;6.20;;;2.20;;
71435;SDS011;59251;51.326;12.370;2023-06-14T13:31:38;5.88;;;2.22;;
71435;SDS011;59251;51.326;12.370;2023-06-14T13:34:05;7.90;;;2.72;;
71435;SDS011;59251;51.326;12.370;2023-06-14T13:36:32;6.70;;;2.30;;
71435;SDS011;59251;51.326;12.370;2023-06-14T13:38:59;9.40;;;2.42;;
71435;SDS011;59251;51.326;12.370;2023-06-14T13:41:26;8.43;;;2.57;;
71435;SDS011;59251;51.326;12.370;2023-06-14T13:43:57;8.93;;;2.50;;
71435;SDS011;59251;51.326;12.370;2023-06-14T13:46:24;6.15;;;2.60;;
71435;SDS011;59251;51.326;12.370;2023-06-14T13:48:53;6.68;;;2.70;;
71435;SDS011;59251;51.326;12.370;2023-06-14T13:51:19;7.43;;;2.63;;
71435;SDS011;59251;51.326;12.370;2023-06-14T13:53:46;6.17;;;2.33;;
71435;SDS011;59251;51.326;12.370;2023-06-14T13:56:13;7.90;;;2.33;;
71435;SDS011;59251;51.326;12.370;2023-06-14T13:58:40;6.45;;;2.90;;
71435;SDS011;59251;51.326;12.370;2023-06-14T14:01:07;7.70;;;2.80;;
71435;SDS011;59251;51.326;12.370;2023-06-14T14:03:35;6.82;;;2.60;;
71435;SDS011;59251;51.326;12.370;2023-06-14T14:06:03;6.90;;;2.90;;
71435;SDS011;59251;51.326;12.370;2023-06-14T14:08:31;7.78;;;2.75;;
71435;SDS011;59251;51.326;12.370;2023-06-14T14:10:57;7.47;;;3.10;;
71435;SDS011;59251;51.326;12.370;2023-06-14T14:13:24;7.65;;;3.05;;
71435;SDS011;59251;51.326;12.370;2023-06-14T14:15:51;6.97;;;2.80;;
71435;SDS011;59251;51.326;12.370;2023-06-14T14:18:18;7.87;;;3.00;;
71435;SDS011;59251;51.326;12.370;2023-06-14T14:20:46;6.57;;;3.08;;
71435;SDS011;59251;51.326;12.370;2023-06-14T14:23:14;6.75;;;2.90;;
71435;SDS011;59251;51.326;12.370;2023-06-14T14:25:40;8.85;;;2.88;;
71435;SDS011;59251;51.326;12.370;2023-06-14T14:28:07;8.13;;;2.58;;
71435;SDS011;59251;51.326;12.370;2023-06-14T14:30:34;6.97;;;2.70;;
71435;SDS011;59251;51.326;12.370;2023-06-14T14:33:04;5.65;;;2.45;;
71435;SDS011;59251;51.326;12.370;2023-06-14T14:35:31;6.30;;;2.67;;
71435;SDS011;59251;51.326;12.370;2023-06-14T14:37:58;8.38;;;2.72;;
71435;SDS011;59251;51.326;12.370;2023-06-14T14:40:26;6.32;;;2.90;;
71435;SDS011;59251;51.326;12.370;2023-06-14T14:42:53;6.00;;;2.50;;
71435;SDS011;59251;51.326;12.370;2023-06-14T14:45:19;7.03;;;2.50;;